Terminal Aerodrome Forecast
Issued by NWS

Home | Current Version | Previous Version | Text Only | Print | Product List | Glossary Off
Versions: 1 2 3 4 5 6 7 8 9 10 11 12 13 14 15

413
FTUS43 KTOP 241722
TAFMHK
TAF
KMHK 241722Z 2418/2518 19011G20KT P6SM VCTS SCT030CB BKN080
      TEMPO 2420/2424 VRB15G30KT 4SM TSRA BKN035CB
     FM250000 25005KT 6SM -TSRA BKN035CB
     FM251200 35008KT P6SM BKN050=

USA.gov is the U.S. government's official web portal to all federal, state and local government web resources and services.